sensor_id;sensor_type;location;lat;lon;timestamp;P1;durP1;ratioP1;P2;durP2;ratioP2
56824;SDS011;42705;50.326;18.772;2023-06-10T00:01:03;11.50;;;10.40;;
56824;SDS011;42705;50.326;18.772;2023-06-10T00:06:45;9.60;;;8.60;;
56824;SDS011;42705;50.326;18.772;2023-06-10T00:12:10;11.80;;;10.50;;
56824;SDS011;42705;50.326;18.772;2023-06-10T00:17:32;13.70;;;12.30;;
56824;SDS011;42705;50.326;18.772;2023-06-10T00:22:54;14.30;;;11.20;;
56824;SDS011;42705;50.326;18.772;2023-06-10T00:28:15;14.00;;;12.60;;
56824;SDS011;42705;50.326;18.772;2023-06-10T00:33:36;14.20;;;12.80;;
56824;SDS011;42705;50.326;18.772;2023-06-10T00:38:57;12.80;;;11.30;;
56824;SDS011;42705;50.326;18.772;2023-06-10T00:44:18;15.00;;;13.50;;
56824;SDS011;42705;50.326;18.772;2023-06-10T00:49:40;16.10;;;13.70;;
56824;SDS011;42705;50.326;18.772;2023-06-10T00:55:01;14.90;;;12.40;;
56824;SDS011;42705;50.326;18.772;2023-06-10T01:00:23;15.50;;;13.50;;
56824;SDS011;42705;50.326;18.772;2023-06-10T01:05:44;15.00;;;13.40;;
56824;SDS011;42705;50.326;18.772;2023-06-10T01:11:23;13.40;;;12.00;;
56824;SDS011;42705;50.326;18.772;2023-06-10T01:16:49;17.10;;;13.70;;
56824;SDS011;42705;50.326;18.772;2023-06-10T01:22:13;15.50;;;13.90;;
56824;SDS011;42705;50.326;18.772;2023-06-10T01:27:36;13.60;;;12.20;;
56824;SDS011;42705;50.326;18.772;2023-06-10T01:33:00;16.80;;;13.30;;
56824;SDS011;42705;50.326;18.772;2023-06-10T01:38:24;16.40;;;14.00;;
56824;SDS011;42705;50.326;18.772;2023-06-10T01:43:47;13.50;;;12.10;;
56824;SDS011;42705;50.326;18.772;2023-06-10T01:49:09;17.90;;;14.10;;
56824;SDS011;42705;50.326;18.772;2023-06-10T01:54:31;14.90;;;13.40;;
56824;SDS011;42705;50.326;18.772;2023-06-10T01:59:52;15.60;;;12.70;;
56824;SDS011;42705;50.326;18.772;2023-06-10T02:05:13;15.50;;;13.90;;
56824;SDS011;42705;50.326;18.772;2023-06-10T02:10:34;16.30;;;14.40;;
56824;SDS011;42705;50.326;18.772;2023-06-10T02:15:55;15.30;;;13.10;;
56824;SDS011;42705;50.326;18.772;2023-06-10T02:21:16;16.60;;;14.00;;
56824;SDS011;42705;50.326;18.772;2023-06-10T02:26:38;17.60;;;14.80;;
56824;SDS011;42705;50.326;18.772;2023-06-10T02:31:59;17.30;;;13.20;;
56824;SDS011;42705;50.326;18.772;2023-06-10T02:37:20;19.30;;;15.60;;
56824;SDS011;42705;50.326;18.772;2023-06-10T02:42:41;19.10;;;17.10;;
56824;SDS011;42705;50.326;18.772;2023-06-10T02:48:03;20.40;;;16.30;;
56824;SDS011;42705;50.326;18.772;2023-06-10T02:53:25;19.90;;;17.80;;
56824;SDS011;42705;50.326;18.772;2023-06-10T02:58:50;23.40;;;18.70;;
56824;SDS011;42705;50.326;18.772;2023-06-10T03:04:13;17.40;;;15.50;;
56824;SDS011;42705;50.326;18.772;2023-06-10T03:09:36;19.90;;;17.50;;
56824;SDS011;42705;50.326;18.772;2023-06-10T03:20:22;20.70;;;16.70;;
56824;SDS011;42705;50.326;18.772;2023-06-10T03:25:45;18.00;;;16.10;;
56824;SDS011;42705;50.326;18.772;2023-06-10T03:31:09;19.80;;;17.00;;
56824;SDS011;42705;50.326;18.772;2023-06-10T03:36:31;18.60;;;14.90;;
56824;SDS011;42705;50.326;18.772;2023-06-10T03:41:53;17.30;;;15.20;;
56824;SDS011;42705;50.326;18.772;2023-06-10T03:47:15;18.70;;;16.20;;
56824;SDS011;42705;50.326;18.772;2023-06-10T03:52:37;15.60;;;13.80;;
56824;SDS011;42705;50.326;18.772;2023-06-10T03:58:00;18.30;;;16.20;;
56824;SDS011;42705;50.326;18.772;2023-06-10T04:03:21;17.00;;;14.90;;
56824;SDS011;42705;50.326;18.772;2023-06-10T04:08:45;14.50;;;13.00;;
56824;SDS011;42705;50.326;18.772;2023-06-10T04:14:07;16.80;;;13.80;;
56824;SDS011;42705;50.326;18.772;2023-06-10T04:24:52;15.80;;;14.10;;
56824;SDS011;42705;50.326;18.772;2023-06-10T04:30:15;17.50;;;14.90;;
56824;SDS011;42705;50.326;18.772;2023-06-10T04:35:37;19.00;;;13.50;;
56824;SDS011;42705;50.326;18.772;2023-06-10T04:41:00;14.30;;;12.30;;
56824;SDS011;42705;50.326;18.772;2023-06-10T04:46:23;18.40;;;13.70;;
56824;SDS011;42705;50.326;18.772;2023-06-10T04:51:45;18.30;;;13.50;;
56824;SDS011;42705;50.326;18.772;2023-06-10T04:57:06;12.70;;;11.40;;
56824;SDS011;42705;50.326;18.772;2023-06-10T05:02:32;15.20;;;12.30;;
56824;SDS011;42705;50.326;18.772;2023-06-10T05:07:53;16.30;;;12.30;;
56824;SDS011;42705;50.326;18.772;2023-06-10T05:13:16;12.30;;;11.00;;
56824;SDS011;42705;50.326;18.772;2023-06-10T05:18:38;12.20;;;10.60;;
56824;SDS011;42705;50.326;18.772;2023-06-10T05:23:59;13.70;;;12.00;;
56824;SDS011;42705;50.326;18.772;2023-06-10T05:29:21;12.50;;;9.20;;
56824;SDS011;42705;50.326;18.772;2023-06-10T05:34:42;13.20;;;11.30;;
56824;SDS011;42705;50.326;18.772;2023-06-10T05:40:04;12.40;;;10.40;;
56824;SDS011;42705;50.326;18.772;2023-06-10T05:50:48;12.50;;;9.60;;
56824;SDS011;42705;50.326;18.772;2023-06-10T05:56:09;11.60;;;10.40;;
56824;SDS011;42705;50.326;18.772;2023-06-10T06:01:30;10.80;;;9.70;;
56824;SDS011;42705;50.326;18.772;2023-06-10T06:06:51;10.80;;;7.90;;
56824;SDS011;42705;50.326;18.772;2023-06-10T06:12:12;10.30;;;8.90;;
56824;SDS011;42705;50.326;18.772;2023-06-10T06:17:33;11.30;;;9.30;;
56824;SDS011;42705;50.326;18.772;2023-06-10T06:22:54;11.00;;;8.70;;
56824;SDS011;42705;50.326;18.772;2023-06-10T06:28:16;9.60;;;7.90;;
56824;SDS011;42705;50.326;18.772;2023-06-10T06:33:37;9.80;;;8.80;;
56824;SDS011;42705;50.326;18.772;2023-06-10T06:38:58;9.20;;;8.30;;
56824;SDS011;42705;50.326;18.772;2023-06-10T06:44:21;11.60;;;8.50;;
56824;SDS011;42705;50.326;18.772;2023-06-10T06:49:47;8.90;;;7.20;;
56824;SDS011;42705;50.326;18.772;2023-06-10T06:55:09;9.60;;;8.00;;
56824;SDS011;42705;50.326;18.772;2023-06-10T07:00:30;10.30;;;8.10;;
56824;SDS011;42705;50.326;18.772;2023-06-10T07:05:52;10.70;;;8.70;;
56824;SDS011;42705;50.326;18.772;2023-06-10T07:11:13;11.80;;;9.60;;
56824;SDS011;42705;50.326;18.772;2023-06-10T07:16:34;10.20;;;7.50;;
56824;SDS011;42705;50.326;18.772;2023-06-10T07:21:56;8.70;;;7.70;;
56824;SDS011;42705;50.326;18.772;2023-06-10T07:27:17;8.60;;;7.60;;
56824;SDS011;42705;50.326;18.772;2023-06-10T07:32:39;9.80;;;7.10;;
56824;SDS011;42705;50.326;18.772;2023-06-10T07:38:00;7.10;;;6.40;;
56824;SDS011;42705;50.326;18.772;2023-06-10T07:43:22;8.10;;;6.80;;
56824;SDS011;42705;50.326;18.772;2023-06-10T07:48:43;8.80;;;6.50;;
56824;SDS011;42705;50.326;18.772;2023-06-10T07:54:04;9.40;;;6.80;;
56824;SDS011;42705;50.326;18.772;2023-06-10T07:59:25;9.00;;;7.40;;
56824;SDS011;42705;50.326;18.772;2023-06-10T08:04:47;12.00;;;8.20;;
56824;SDS011;42705;50.326;18.772;2023-06-10T08:10:09;9.40;;;7.20;;
56824;SDS011;42705;50.326;18.772;2023-06-10T08:15:31;7.50;;;6.60;;
56824;SDS011;42705;50.326;18.772;2023-06-10T08:20:52;9.80;;;6.40;;
56824;SDS011;42705;50.326;18.772;2023-06-10T08:26:13;7.80;;;6.30;;
56824;SDS011;42705;50.326;18.772;2023-06-10T08:31:35;9.10;;;7.80;;
56824;SDS011;42705;50.326;18.772;2023-06-10T08:36:56;13.10;;;8.90;;
56824;SDS011;42705;50.326;18.772;2023-06-10T08:42:39;10.50;;;7.10;;
56824;SDS011;42705;50.326;18.772;2023-06-10T08:48:05;8.50;;;6.60;;
56824;SDS011;42705;50.326;18.772;2023-06-10T08:53:28;6.40;;;5.70;;
56824;SDS011;42705;50.326;18.772;2023-06-10T08:58:52;6.40;;;5.70;;
56824;SDS011;42705;50.326;18.772;2023-06-10T09:04:14;7.00;;;5.10;;
56824;SDS011;42705;50.326;18.772;2023-06-10T09:09:38;6.50;;;5.60;;
56824;SDS011;42705;50.326;18.772;2023-06-10T09:14:59;8.20;;;5.80;;
56824;SDS011;42705;50.326;18.772;2023-06-10T09:20:22;6.30;;;5.10;;
56824;SDS011;42705;50.326;18.772;2023-06-10T09:25:43;8.60;;;5.70;;
56824;SDS011;42705;50.326;18.772;2023-06-10T09:31:05;6.90;;;6.20;;
56824;SDS011;42705;50.326;18.772;2023-06-10T09:36:30;8.80;;;6.50;;
56824;SDS011;42705;50.326;18.772;2023-06-10T09:41:52;6.50;;;5.60;;
56824;SDS011;42705;50.326;18.772;2023-06-10T09:47:19;6.50;;;5.60;;
56824;SDS011;42705;50.326;18.772;2023-06-10T09:52:41;8.00;;;5.30;;
56824;SDS011;42705;50.326;18.772;2023-06-10T09:58:03;5.80;;;5.20;;
56824;SDS011;42705;50.326;18.772;2023-06-10T10:03:24;7.50;;;5.80;;
56824;SDS011;42705;50.326;18.772;2023-06-10T10:08:49;7.10;;;5.50;;
56824;SDS011;42705;50.326;18.772;2023-06-10T10:14:11;5.70;;;4.80;;
56824;SDS011;42705;50.326;18.772;2023-06-10T10:19:36;5.00;;;4.40;;
56824;SDS011;42705;50.326;18.772;2023-06-10T10:25:06;4.70;;;4.30;;
56824;SDS011;42705;50.326;18.772;2023-06-10T10:30:34;7.90;;;4.30;;
56824;SDS011;42705;50.326;18.772;2023-06-10T10:36:01;4.60;;;4.10;;
56824;SDS011;42705;50.326;18.772;2023-06-10T10:41:24;5.80;;;4.20;;
56824;SDS011;42705;50.326;18.772;2023-06-10T10:46:50;4.70;;;4.10;;
56824;SDS011;42705;50.326;18.772;2023-06-10T10:52:12;3.70;;;3.40;;
56824;SDS011;42705;50.326;18.772;2023-06-10T10:57:33;4.40;;;3.60;;
56824;SDS011;42705;50.326;18.772;2023-06-10T11:03:05;5.90;;;3.80;;
56824;SDS011;42705;50.326;18.772;2023-06-10T11:25:19;5.00;;;4.50;;
56824;SDS011;42705;50.326;18.772;2023-06-10T11:30:59;5.50;;;4.30;;
56824;SDS011;42705;50.326;18.772;2023-06-10T11:36:24;4.30;;;3.90;;
56824;SDS011;42705;50.326;18.772;2023-06-10T11:41:47;4.30;;;3.90;;
56824;SDS011;42705;50.326;18.772;2023-06-10T11:52:30;4.30;;;3.70;;
56824;SDS011;42705;50.326;18.772;2023-06-10T11:58:00;4.70;;;3.90;;
56824;SDS011;42705;50.326;18.772;2023-06-10T12:03:21;5.00;;;4.10;;
56824;SDS011;42705;50.326;18.772;2023-06-10T12:14:04;6.50;;;4.20;;
56824;SDS011;42705;50.326;18.772;2023-06-10T12:19:25;4.60;;;3.90;;
56824;SDS011;42705;50.326;18.772;2023-06-10T12:25:00;3.90;;;3.50;;
56824;SDS011;42705;50.326;18.772;2023-06-10T12:30:24;5.90;;;4.00;;
56824;SDS011;42705;50.326;18.772;2023-06-10T12:35:51;12.30;;;6.00;;
56824;SDS011;42705;50.326;18.772;2023-06-10T12:41:13;8.60;;;4.20;;
56824;SDS011;42705;50.326;18.772;2023-06-10T12:46:38;7.10;;;4.40;;
56824;SDS011;42705;50.326;18.772;2023-06-10T12:51:59;7.70;;;5.80;;
56824;SDS011;42705;50.326;18.772;2023-06-10T12:57:20;4.90;;;4.40;;
56824;SDS011;42705;50.326;18.772;2023-06-10T13:02:42;4.80;;;4.40;;
56824;SDS011;42705;50.326;18.772;2023-06-10T13:08:07;5.70;;;4.80;;
56824;SDS011;42705;50.326;18.772;2023-06-10T13:13:30;7.80;;;5.80;;
56824;SDS011;42705;50.326;18.772;2023-06-10T13:18:53;8.00;;;5.90;;
56824;SDS011;42705;50.326;18.772;2023-06-10T13:24:14;7.50;;;5.40;;
56824;SDS011;42705;50.326;18.772;2023-06-10T13:29:35;5.80;;;5.20;;
56824;SDS011;42705;50.326;18.772;2023-06-10T13:34:57;8.80;;;6.40;;
56824;SDS011;42705;50.326;18.772;2023-06-10T13:40:18;9.30;;;5.60;;
56824;SDS011;42705;50.326;18.772;2023-06-10T13:45:40;8.90;;;5.70;;
56824;SDS011;42705;50.326;18.772;2023-06-10T13:51:03;9.40;;;6.20;;
56824;SDS011;42705;50.326;18.772;2023-06-10T13:56:24;8.00;;;6.60;;
56824;SDS011;42705;50.326;18.772;2023-06-10T14:07:07;7.70;;;6.90;;
56824;SDS011;42705;50.326;18.772;2023-06-10T14:12:29;6.40;;;5.70;;
56824;SDS011;42705;50.326;18.772;2023-06-10T14:17:50;5.90;;;4.90;;
56824;SDS011;42705;50.326;18.772;2023-06-10T14:23:11;5.90;;;4.80;;
56824;SDS011;42705;50.326;18.772;2023-06-10T14:28:33;6.10;;;5.50;;
56824;SDS011;42705;50.326;18.772;2023-06-10T14:33:54;6.90;;;5.30;;
56824;SDS011;42705;50.326;18.772;2023-06-10T14:39:15;6.10;;;5.00;;
56824;SDS011;42705;50.326;18.772;2023-06-10T14:44:36;5.50;;;4.70;;
56824;SDS011;42705;50.326;18.772;2023-06-10T14:49:57;6.70;;;4.40;;
56824;SDS011;42705;50.326;18.772;2023-06-10T14:55:18;4.90;;;4.40;;
56824;SDS011;42705;50.326;18.772;2023-06-10T15:00:40;5.50;;;4.70;;
56824;SDS011;42705;50.326;18.772;2023-06-10T15:06:01;5.00;;;4.40;;
56824;SDS011;42705;50.326;18.772;2023-06-10T15:11:22;5.30;;;4.70;;
56824;SDS011;42705;50.326;18.772;2023-06-10T15:16:43;5.10;;;4.50;;
56824;SDS011;42705;50.326;18.772;2023-06-10T15:22:05;5.40;;;4.70;;
56824;SDS011;42705;50.326;18.772;2023-06-10T15:27:26;7.90;;;5.30;;
56824;SDS011;42705;50.326;18.772;2023-06-10T15:32:47;6.60;;;5.90;;
56824;SDS011;42705;50.326;18.772;2023-06-10T15:38:08;6.10;;;5.50;;
56824;SDS011;42705;50.326;18.772;2023-06-10T15:43:29;6.40;;;5.70;;
56824;SDS011;42705;50.326;18.772;2023-06-10T15:48:51;7.20;;;6.30;;
56824;SDS011;42705;50.326;18.772;2023-06-10T15:54:14;8.10;;;6.80;;
56824;SDS011;42705;50.326;18.772;2023-06-10T15:59:36;11.10;;;8.00;;
56824;SDS011;42705;50.326;18.772;2023-06-10T16:04:57;13.50;;;9.30;;
56824;SDS011;42705;50.326;18.772;2023-06-10T16:10:18;12.60;;;9.50;;
56824;SDS011;42705;50.326;18.772;2023-06-10T16:15:39;18.00;;;10.90;;
56824;SDS011;42705;50.326;18.772;2023-06-10T16:21:01;14.90;;;10.30;;
56824;SDS011;42705;50.326;18.772;2023-06-10T16:26:22;11.60;;;9.20;;
56824;SDS011;42705;50.326;18.772;2023-06-10T16:31:43;8.20;;;7.30;;
56824;SDS011;42705;50.326;18.772;2023-06-10T16:37:05;9.50;;;8.50;;
56824;SDS011;42705;50.326;18.772;2023-06-10T16:42:26;15.00;;;8.90;;
56824;SDS011;42705;50.326;18.772;2023-06-10T16:47:47;10.60;;;6.70;;
56824;SDS011;42705;50.326;18.772;2023-06-10T16:53:08;7.60;;;5.60;;
56824;SDS011;42705;50.326;18.772;2023-06-10T16:58:30;8.30;;;4.90;;
56824;SDS011;42705;50.326;18.772;2023-06-10T17:03:51;4.30;;;4.00;;
56824;SDS011;42705;50.326;18.772;2023-06-10T17:09:12;7.60;;;4.70;;
56824;SDS011;42705;50.326;18.772;2023-06-10T17:14:33;6.10;;;5.20;;
56824;SDS011;42705;50.326;18.772;2023-06-10T17:19:54;6.20;;;5.60;;
56824;SDS011;42705;50.326;18.772;2023-06-10T17:25:16;5.90;;;4.70;;
56824;SDS011;42705;50.326;18.772;2023-06-10T17:30:37;6.60;;;5.70;;
56824;SDS011;42705;50.326;18.772;2023-06-10T17:35:58;6.50;;;5.70;;
56824;SDS011;42705;50.326;18.772;2023-06-10T17:41:20;7.00;;;6.10;;
56824;SDS011;42705;50.326;18.772;2023-06-10T17:46:41;5.80;;;5.10;;
56824;SDS011;42705;50.326;18.772;2023-06-10T17:52:03;9.50;;;7.20;;
56824;SDS011;42705;50.326;18.772;2023-06-10T17:57:25;9.60;;;8.20;;
56824;SDS011;42705;50.326;18.772;2023-06-10T18:02:46;10.00;;;7.30;;
56824;SDS011;42705;50.326;18.772;2023-06-10T18:08:08;9.40;;;7.60;;
56824;SDS011;42705;50.326;18.772;2023-06-10T18:13:30;15.40;;;8.40;;
56824;SDS011;42705;50.326;18.772;2023-06-10T18:18:52;10.90;;;6.60;;
56824;SDS011;42705;50.326;18.772;2023-06-10T18:24:13;11.30;;;7.10;;
56824;SDS011;42705;50.326;18.772;2023-06-10T18:29:35;10.60;;;7.20;;
56824;SDS011;42705;50.326;18.772;2023-06-10T18:34:57;13.60;;;8.50;;
56824;SDS011;42705;50.326;18.772;2023-06-10T18:40:18;13.20;;;9.30;;
56824;SDS011;42705;50.326;18.772;2023-06-10T18:45:39;14.10;;;8.80;;
56824;SDS011;42705;50.326;18.772;2023-06-10T18:51:01;12.80;;;7.60;;
56824;SDS011;42705;50.326;18.772;2023-06-10T18:56:22;11.50;;;7.00;;
56824;SDS011;42705;50.326;18.772;2023-06-10T19:01:44;7.10;;;6.00;;
56824;SDS011;42705;50.326;18.772;2023-06-10T19:07:05;9.10;;;5.30;;
56824;SDS011;42705;50.326;18.772;2023-06-10T19:12:26;8.30;;;6.30;;
56824;SDS011;42705;50.326;18.772;2023-06-10T19:17:49;9.80;;;5.90;;
56824;SDS011;42705;50.326;18.772;2023-06-10T19:23:11;14.60;;;8.20;;
56824;SDS011;42705;50.326;18.772;2023-06-10T19:28:34;11.00;;;7.60;;
56824;SDS011;42705;50.326;18.772;2023-06-10T19:33:57;11.60;;;8.00;;
56824;SDS011;42705;50.326;18.772;2023-06-10T19:39:18;13.00;;;8.60;;
56824;SDS011;42705;50.326;18.772;2023-06-10T19:44:39;8.50;;;7.30;;
56824;SDS011;42705;50.326;18.772;2023-06-10T19:50:02;9.50;;;6.90;;
56824;SDS011;42705;50.326;18.772;2023-06-10T19:55:25;8.20;;;5.90;;
56824;SDS011;42705;50.326;18.772;2023-06-10T20:00:50;8.00;;;5.50;;
56824;SDS011;42705;50.326;18.772;2023-06-10T20:06:11;7.30;;;5.90;;
56824;SDS011;42705;50.326;18.772;2023-06-10T20:11:32;11.30;;;5.90;;
56824;SDS011;42705;50.326;18.772;2023-06-10T20:16:54;6.00;;;5.40;;
56824;SDS011;42705;50.326;18.772;2023-06-10T20:22:15;6.30;;;5.70;;
56824;SDS011;42705;50.326;18.772;2023-06-10T20:27:38;8.30;;;5.30;;
56824;SDS011;42705;50.326;18.772;2023-06-10T20:33:01;8.40;;;6.40;;
56824;SDS011;42705;50.326;18.772;2023-06-10T20:38:22;8.20;;;5.70;;
56824;SDS011;42705;50.326;18.772;2023-06-10T20:43:45;6.00;;;5.40;;
56824;SDS011;42705;50.326;18.772;2023-06-10T20:49:06;6.20;;;5.60;;
56824;SDS011;42705;50.326;18.772;2023-06-10T20:54:27;7.50;;;5.70;;
56824;SDS011;42705;50.326;18.772;2023-06-10T20:59:49;7.70;;;5.70;;
56824;SDS011;42705;50.326;18.772;2023-06-10T21:05:11;8.00;;;6.00;;
56824;SDS011;42705;50.326;18.772;2023-06-10T21:10:32;6.30;;;5.70;;
56824;SDS011;42705;50.326;18.772;2023-06-10T21:15:55;8.50;;;6.10;;
56824;SDS011;42705;50.326;18.772;2023-06-10T21:21:17;8.50;;;7.70;;
56824;SDS011;42705;50.326;18.772;2023-06-10T21:26:39;7.80;;;5.60;;
56824;SDS011;42705;50.326;18.772;2023-06-10T21:32:00;6.80;;;5.90;;
56824;SDS011;42705;50.326;18.772;2023-06-10T21:37:21;7.20;;;6.20;;
56824;SDS011;42705;50.326;18.772;2023-06-10T21:42:42;8.90;;;6.30;;
56824;SDS011;42705;50.326;18.772;2023-06-10T21:48:04;6.90;;;6.10;;
56824;SDS011;42705;50.326;18.772;2023-06-10T21:53:28;9.90;;;7.50;;
56824;SDS011;42705;50.326;18.772;2023-06-10T21:58:49;11.10;;;8.30;;
56824;SDS011;42705;50.326;18.772;2023-06-10T22:04:10;7.40;;;6.60;;
56824;SDS011;42705;50.326;18.772;2023-06-10T22:09:32;8.30;;;7.10;;
56824;SDS011;42705;50.326;18.772;2023-06-10T22:14:53;10.30;;;8.40;;
56824;SDS011;42705;50.326;18.772;2023-06-10T22:20:14;9.80;;;8.30;;
56824;SDS011;42705;50.326;18.772;2023-06-10T22:25:36;12.00;;;8.40;;
56824;SDS011;42705;50.326;18.772;2023-06-10T22:30:57;10.30;;;7.80;;
56824;SDS011;42705;50.326;18.772;2023-06-10T22:36:18;8.40;;;6.80;;
56824;SDS011;42705;50.326;18.772;2023-06-10T22:41:39;9.40;;;6.50;;
56824;SDS011;42705;50.326;18.772;2023-06-10T22:47:01;10.20;;;6.40;;
56824;SDS011;42705;50.326;18.772;2023-06-10T22:52:22;7.60;;;5.20;;
56824;SDS011;42705;50.326;18.772;2023-06-10T22:57:44;7.60;;;6.60;;
56824;SDS011;42705;50.326;18.772;2023-06-10T23:03:06;8.50;;;6.60;;
56824;SDS011;42705;50.326;18.772;2023-06-10T23:08:27;7.40;;;6.70;;
56824;SDS011;42705;50.326;18.772;2023-06-10T23:13:48;8.40;;;6.20;;
56824;SDS011;42705;50.326;18.772;2023-06-10T23:19:09;8.10;;;7.30;;
56824;SDS011;42705;50.326;18.772;2023-06-10T23:24:32;9.30;;;8.30;;
56824;SDS011;42705;50.326;18.772;2023-06-10T23:29:54;10.60;;;8.40;;
56824;SDS011;42705;50.326;18.772;2023-06-10T23:35:16;10.50;;;7.60;;
56824;SDS011;42705;50.326;18.772;2023-06-10T23:40:40;14.70;;;9.50;;
56824;SDS011;42705;50.326;18.772;2023-06-10T23:46:01;16.70;;;11.20;;
56824;SDS011;42705;50.326;18.772;2023-06-10T23:51:22;19.70;;;12.10;;
56824;SDS011;42705;50.326;18.772;2023-06-10T23:56:43;13.30;;;8.50;;
